Flight Track Log - Related Links

Times and Time Zones

All times are in EST time to prevent confusion due to time zone crossing. See the N314K flight status page for this flight to view local times or setup timezone preferences in your user account.

Time Position Orientation Groundspeed Altitude Reporting Facility
EST Latitude Longitude Course Direction KTS MPH feet Rate Location/Type
Fri 04:18:20 PM 41.4592 -71.4739 260° West 146 168 3,000  Level Boston Center
Fri 04:18:57 PM 41.4550 -71.5039 260° West 146 168 3,000  Level Boston Center
Fri 04:19:57 PM 41.4458 -71.5581 257° West 144 166 3,000  Level Boston Center
Fri 04:20:09 PM 41.4467 -71.5658 278° West 146 168 3,000  Level Boston Center
Fri 04:21:09 PM 41.4378 -71.6169 257° West 143 165 3,000  Level Boston Center
Fri 04:22:04 PM 41.4297 -71.6669 258° West 147 169 3,000  Level Boston Center
Fri 04:22:10 PM 41.4289 -71.6744 262° West 147 169 3,000  Level Boston Center
Fri 04:23:03 PM 41.4208 -71.7211 257° West 141 162 3,000  Level Boston Center
Fri 04:23:12 PM 41.4219 -71.7292 280° West 150 173 3,000  Level Boston Center
Fri 04:24:13 PM 41.4111 -71.7844 255° West 153 176 3,000  Level Boston Center
Fri 04:25:05 PM 41.3986 -71.8367 252° West 153 176 3,000  Level Boston Center
Fri 04:25:14 PM 41.3983 -71.8433 267° West 155 178 3,000  Level Boston Center
Fri 04:26:17 PM 41.3864 -71.8967 253° West 153 176 3,000  Level Boston Center
Fri 04:27:19 PM 41.3761 -71.9514 256° West 153 176 3,000  Level Boston Center
Fri 04:28:14 PM 41.3667 -72.0000 256° West 145 167 3,000  Level Boston Center
Fri 04:28:20 PM 41.3658 -72.0039 254° West 148 170 3,000  Level Boston Center
Fri 04:29:21 PM 41.3556 -72.0619 257° West 148 170 3,000  Level Boston Center
Fri 04:30:21 PM 41.3478 -72.1147 259° West 150 173 3,000  Level Boston Center
Fri 04:31:22 PM 41.3389 -72.1708 258° West 149 171 3,000  Level Boston Center
Fri 04:31:25 PM 41.3397 -72.1697 45° Northeast 152 175 3,000  Level Boston Center
Fri 04:32:25 PM 41.3300 -72.2275 257° West 150 173 3,000  Level Boston Center
Fri 04:32:28 PM 41.3306 -72.2308 283° West 153 176 3,000  Level Boston Center
Fri 04:33:16 PM 41.3222 -72.2794 257° West 155 178 3,000 102 Level Boston Center
Fri 04:33:27 PM 41.3231 -72.2869 278° West 158 182 3,100 83 Climbing Boston Center
Fri 04:34:28 PM 41.3139 -72.3436 258° West 159 183 3,100  Level Boston Center
Fri 04:35:29 PM 41.3039 -72.3997 257° West 156 180 3,100 -50 Level Boston Center
Fri 04:36:29 PM 41.2958 -72.4575 260° West 160 184 3,000 -49 Descending Boston Center
Fri 04:37:32 PM 41.2872 -72.5200 260° West 159 183 3,000  Level Boston Center
Fri 04:38:33 PM 41.2775 -72.5756 257° West 155 178 3,000  Level Boston Center
Fri 04:39:34 PM 41.2658 -72.6317 255° West 154 177 3,000 -49 Level Boston Center
Fri 04:40:35 PM 41.2536 -72.6875 254° West 156 180 2,900  Descending Boston Center
Fri 04:41:37 PM 41.2444 -72.7436 258° West 157 181 3,000 49 Climbing Boston Center
Fri 04:42:37 PM 41.2364 -72.8011 259° West 159 183 3,000 -48 Level Boston Center
Fri 04:43:41 PM 41.2253 -72.8578 255° West 160 184 2,900 50 Descending Boston Center
Fri 04:44:36 PM 41.2167 -72.9167 259° West 155 178 3,100 104 Climbing New York TRACON
Fri 04:45:36 PM 41.2000 -72.9667 246° West 160 184 3,100  Level New York TRACON
Fri 04:46:36 PM 41.2000 -73.0167 270° West 157 181 3,100  Level New York TRACON
Fri 04:47:36 PM 41.1833 -73.0833 252° West 153 176 3,100  Level New York TRACON
Fri 04:48:36 PM 41.1667 -73.1333 246° West 154 177 3,100 50 Level New York TRACON
Fri 04:49:36 PM 41.1667 -73.1833 270° West 153 176 3,200  Climbing New York TRACON
Fri 04:50:36 PM 41.1500 -73.2500 252° West 154 177 3,100 -53 Descending New York TRACON
Fri 04:51:30 PM 41.1333 -73.3000 246° West 151 174 3,100 -202 Level New York TRACON
Fri 04:52:35 PM 41.1333 -73.3500 270° West 159 183 2,700 -400 Descending New York TRACON
Fri 04:53:30 PM 41.1167 -73.4000 246° West 162 186 2,300 -397 Descending New York TRACON
Fri 04:54:36 PM 41.1000 -73.4667 252° West 168 193 1,900 -288 Descending New York TRACON
Fri 04:55:35 PM 41.0833 -73.5167 246° West 163 188 1,700 -151 Descending New York TRACON
Fri 04:56:35 PM 41.0667 -73.5667 246° West 140 161 1,600  Descending New York TRACON
Fri 04:57:35 PM 41.0500 -73.6000 236° Southwest 127 146 1,700  Climbing New York TRACON
Fri 04:58:30 PM 41.0500 -73.6500 270° West 100 115 1,600 -365 Descending New York TRACON
Fri 04:59:30 PM 41.0667 -73.6667 323° Northwest 81 93 1,000 -392 Descending New York TRACON
Fri 05:01:03 PM 41.0661 -73.7136 269° West 90 104 600 -258 Descending Boston Center
Fri 05:03:00 PM 41.0667 -73.7000 North  Level FlightAware Approximate

Login

Don't have an account? Register now (free) for customized features, flight alerts, and more!